This is the latest recevied weather packets stored in our database for station/object K3HM. If no packets are shown the sender has not sent any weather packets the latest 1 day(s).
| Time | Temp. | Humidity | Pressure | Rain* | Wind** | Luminosity | Snow |
|---|---|---|---|---|---|---|---|
| 1778048556 | 13.33° C | 78% | 1010.1 hPa | 0 mm | 0 m/s | 0 W/m² | - |
| 1778048252 | 13.33° C | 80% | 1010.1 hPa | 0 mm | 0 m/s | 0 W/m² | - |
| 1778047949 | 13.33° C | 79% | 1010.2 hPa | 0 mm | 0 m/s | 0 W/m² | - |
| 1778047648 | 13.89° C | 78% | 1010 hPa | 0 mm | 0 m/s | 0 W/m² | - |
| 1778047344 | 13.89° C | 77% | 1010.2 hPa | 0 mm | 0 m/s | 0 W/m² | - |
| 1778047041 | 13.33° C | 78% | 1010.3 hPa | 0 mm | 0 m/s | 0 W/m² | - |
| 1778046738 | 13.89° C | 77% | 1010.3 hPa | 0 mm | 0 m/s | 0 W/m² | - |
| 1778046435 | 13.33° C | 80% | 1010.4 hPa | 0 mm | 0.45 m/s, 356° | 0 W/m² | - |
| 1778046131 | 13.33° C | 83% | 1010.3 hPa | 0 mm | 0 m/s | 0 W/m² | - |
| 1778045829 | 13.89° C | 81% | 1010.4 hPa | 0 mm | 0.45 m/s, 11° | 0 W/m² | - |
| 1778045527 | 14.44° C | 73% | 1010.4 hPa | 0 mm | 0 m/s | 0 W/m² | - |
| 1778045225 | 15° C | 73% | 1010.4 hPa | 0 mm | 0 m/s | 0 W/m² | - |
| 1778044923 | 15° C | 67% | 1010.7 hPa | 0 mm | 0 m/s | 0 W/m² | - |
| 1778044620 | 15° C | 69% | 1010.8 hPa | 0 mm | 0 m/s | 0 W/m² | - |
| 1778044316 | 15° C | 70% | 1010.7 hPa | 0 mm | 0.45 m/s, 346° | 0 W/m² | - |
| 1778044015 | 13.89° C | 73% | 1010.8 hPa | 0 mm | 0 m/s | 0 W/m² | - |
| 1778043711 | 13.89° C | 74% | 1010.9 hPa | 0 mm | 0 m/s | 0 W/m² | - |
| 1778043408 | 13.89° C | 76% | 1011 hPa | 0 mm | 0 m/s | 0 W/m² | - |
| 1778043105 | 13.89° C | 74% | 1011.3 hPa | 0 mm | 0 m/s | 0 W/m² | - |
| 1778042802 | 13.89° C | 74% | 1011.2 hPa | 0 mm | 0 m/s | 0 W/m² | - |
| 1778042499 | 13.89° C | 74% | 1011.2 hPa | 0 mm | 0 m/s | 0 W/m² | - |
| 1778042196 | 13.89° C | 73% | 1011.1 hPa | 0 mm | 0 m/s | 0 W/m² | - |
| 1778041894 | 13.89° C | 74% | 1011.1 hPa | 0 mm | 0 m/s | 0 W/m² | - |
| 1778041593 | 13.89° C | 74% | 1011.3 hPa | 0 mm | 0 m/s | 0 W/m² | - |
| 1778041291 | 14.44° C | 71% | 1011.2 hPa | 0 mm | 0 m/s | 0 W/m² | - |
* Rain latest hour (hover to see other rain measurements)
** Current wind speed in m/s (hover to see current wind gust speed)